createdAt,value
2018-07-23T00:00:59.092Z,58.50
2018-07-23T00:02:16.331Z,58.50
2018-07-23T00:03:33.278Z,59.10
2018-07-23T00:04:49.785Z,58.30
2018-07-23T00:06:06.697Z,58.20
2018-07-23T00:08:40.384Z,58.30
2018-07-23T00:09:57.665Z,58.20
2018-07-23T00:11:14.866Z,58.30
2018-07-23T00:12:32.022Z,58.50
2018-07-23T00:13:49.140Z,58.30
2018-07-23T00:15:05.978Z,58.30
2018-07-23T00:16:22.903Z,58.50
2018-07-23T00:17:40.043Z,58.40
2018-07-23T00:18:56.744Z,59.10
2018-07-23T00:20:13.781Z,58.50
2018-07-23T00:21:30.726Z,58.50
2018-07-23T00:22:47.567Z,58.50
2018-07-23T00:24:04.469Z,58.30
2018-07-23T00:25:21.265Z,58.30
2018-07-23T00:26:38.237Z,58.40
2018-07-23T00:27:54.998Z,58.70
2018-07-23T00:29:11.791Z,58.50
2018-07-23T00:30:28.684Z,58.40
2018-07-23T00:31:45.684Z,58.40
2018-07-23T00:33:02.868Z,58.30
2018-07-23T00:34:19.884Z,58.30
2018-07-23T00:35:36.467Z,58.30
2018-07-23T00:36:53.488Z,58.30
2018-07-23T00:38:10.956Z,58.50
2018-07-23T00:39:28.025Z,58.50
2018-07-23T00:40:44.584Z,58.60
2018-07-23T00:42:01.587Z,58.60
2018-07-23T00:43:18.380Z,58.40
2018-07-23T00:45:51.894Z,58.30
2018-07-23T00:47:09.308Z,58.60
2018-07-23T00:48:26.705Z,58.40
2018-07-23T00:49:44.064Z,58.40
2018-07-23T00:52:17.604Z,59.30
2018-07-23T00:53:34.454Z,59.30
2018-07-23T00:54:51.372Z,58.70
2018-07-23T00:56:08.379Z,58.60
2018-07-23T00:57:25.261Z,58.60
2018-07-23T00:58:42.264Z,58.70
2018-07-23T00:59:58.864Z,58.60
2018-07-23T01:01:15.840Z,58.50
2018-07-23T01:02:32.757Z,59.40
2018-07-23T01:03:49.352Z,58.60
2018-07-23T01:05:06.277Z,59.30
2018-07-23T01:06:23.080Z,58.70
2018-07-23T01:07:40.104Z,58.70
2018-07-23T01:08:56.745Z,58.60
2018-07-23T01:10:13.354Z,58.60
2018-07-23T01:11:30.449Z,58.40
2018-07-23T01:12:47.408Z,58.50
2018-07-23T01:14:04.440Z,58.60
2018-07-23T01:15:21.240Z,58.70
2018-07-23T01:16:38.999Z,58.60
2018-07-23T01:17:56.014Z,58.60
2018-07-23T01:19:12.558Z,58.90
2018-07-23T01:20:29.417Z,58.90
2018-07-23T01:21:46.388Z,59.40
2018-07-23T01:23:03.010Z,58.80
2018-07-23T01:24:19.732Z,58.50
2018-07-23T01:25:36.524Z,58.40
2018-07-23T01:26:53.300Z,59.20
2018-07-23T01:28:10.211Z,58.70
2018-07-23T01:29:26.804Z,58.90
2018-07-23T01:30:43.608Z,59.60
2018-07-23T01:32:00.533Z,58.80
2018-07-23T01:33:17.970Z,58.90
2018-07-23T01:34:35.029Z,58.90
2018-07-23T01:35:51.556Z,59.30
2018-07-23T01:37:08.432Z,58.90
2018-07-23T01:38:25.284Z,58.90
2018-07-23T01:39:42.225Z,58.90
2018-07-23T01:40:59.160Z,58.70
2018-07-23T01:42:16.797Z,58.90
2018-07-23T01:43:34.381Z,59.60
2018-07-23T01:44:50.846Z,58.90
2018-07-23T01:46:07.795Z,59.60
2018-07-23T01:47:24.661Z,58.90
2018-07-23T01:48:41.497Z,58.60
2018-07-23T01:49:58.219Z,58.40
2018-07-23T01:51:14.928Z,58.40
2018-07-23T01:52:31.661Z,58.40
2018-07-23T01:53:48.882Z,58.40
2018-07-23T01:55:06.143Z,59.00
2018-07-23T01:56:23.606Z,58.30
2018-07-23T01:57:40.500Z,58.30
2018-07-23T02:00:14.192Z,58.30
2018-07-23T02:01:30.869Z,58.30
2018-07-23T02:02:47.716Z,58.40
2018-07-23T02:04:04.621Z,58.30
2018-07-23T02:05:21.304Z,58.40
2018-07-23T02:06:38.112Z,58.30
2018-07-23T02:07:54.604Z,58.70
2018-07-23T02:09:13.344Z,59.00
2018-07-23T02:10:30.829Z,58.30
2018-07-23T02:11:47.849Z,58.60
2018-07-23T02:13:04.768Z,58.60
2018-07-23T02:14:21.525Z,58.60
2018-07-23T02:15:38.192Z,58.60
2018-07-23T02:16:54.762Z,58.70
2018-07-23T02:18:11.985Z,58.60
2018-07-23T02:19:29.293Z,58.50
2018-07-23T02:20:46.202Z,58.50
2018-07-23T02:22:03.832Z,58.50
2018-07-23T02:23:20.748Z,58.50
2018-07-23T02:24:37.584Z,58.50
2018-07-23T02:25:54.409Z,58.50
2018-07-23T02:27:11.324Z,58.40
2018-07-23T02:28:28.183Z,58.30
2018-07-23T02:29:45.356Z,58.40
2018-07-23T02:31:02.753Z,59.10
2018-07-23T02:32:19.975Z,58.20
2018-07-23T02:33:36.980Z,58.50
2018-07-23T02:34:54.012Z,58.70
2018-07-23T02:36:11.032Z,58.80
2018-07-23T02:37:28.424Z,58.60
2018-07-23T02:38:45.421Z,58.90
2018-07-23T02:40:02.049Z,59.50
2018-07-23T02:41:19.513Z,58.80
2018-07-23T02:43:52.992Z,58.80
2018-07-23T02:45:09.620Z,58.60
2018-07-23T02:46:26.418Z,58.30
2018-07-23T02:47:43.518Z,58.60
2018-07-23T02:49:00.524Z,58.60
2018-07-23T02:50:17.696Z,59.10
2018-07-23T02:51:34.368Z,58.80
2018-07-23T02:52:51.085Z,58.80
2018-07-23T02:54:07.797Z,58.80
2018-07-23T02:55:24.560Z,58.80
2018-07-23T02:56:41.433Z,58.70
2018-07-23T02:57:58.525Z,58.70
2018-07-23T02:59:15.940Z,59.20
2018-07-23T03:00:32.576Z,58.60
2018-07-23T03:01:49.368Z,58.60
2018-07-23T03:03:05.952Z,58.50
2018-07-23T03:04:22.869Z,58.50
2018-07-23T03:05:39.778Z,58.40
2018-07-23T03:06:56.717Z,58.30
2018-07-23T03:08:13.699Z,58.40
2018-07-23T03:09:30.694Z,58.40
2018-07-23T03:10:47.373Z,58.40
2018-07-23T03:12:04.347Z,58.40
2018-07-23T03:13:21.476Z,58.40
2018-07-23T03:14:39.197Z,58.40
2018-07-23T03:15:55.861Z,58.40
2018-07-23T03:17:12.713Z,58.40
2018-07-23T03:18:29.540Z,58.40
2018-07-23T03:19:46.468Z,58.30
2018-07-23T03:21:03.272Z,58.30
2018-07-23T03:22:20.337Z,58.40
2018-07-23T03:23:37.124Z,58.40
2018-07-23T03:24:53.913Z,58.60
2018-07-23T03:26:11.017Z,58.40
2018-07-23T03:28:45.211Z,58.50
2018-07-23T03:30:01.988Z,58.40
2018-07-23T03:31:18.712Z,58.50
2018-07-23T03:32:35.613Z,58.40
2018-07-23T03:33:52.724Z,58.50
2018-07-23T03:35:10.153Z,58.70
2018-07-23T03:36:27.160Z,58.40
2018-07-23T03:37:44.513Z,58.20
2018-07-23T03:40:18.765Z,58.70
2018-07-23T03:41:35.836Z,58.20
2018-07-23T03:42:52.728Z,58.00
2018-07-23T03:44:09.176Z,58.00
2018-07-23T03:45:26.336Z,58.00
2018-07-23T03:46:43.129Z,58.00
2018-07-23T03:47:59.780Z,58.10
2018-07-23T03:49:16.444Z,58.20
2018-07-23T03:50:33.265Z,58.00
2018-07-23T03:51:50.249Z,58.00
2018-07-23T03:53:07.148Z,58.10
2018-07-23T03:54:24.172Z,58.30
2018-07-23T03:55:40.987Z,58.20
2018-07-23T03:56:57.987Z,58.20
2018-07-23T03:58:14.796Z,58.10
2018-07-23T03:59:31.343Z,58.20
2018-07-23T04:00:48.291Z,58.30
2018-07-23T04:02:04.897Z,58.30
2018-07-23T04:03:21.733Z,58.30
2018-07-23T04:04:38.591Z,59.10
2018-07-23T04:05:55.341Z,58.40
2018-07-23T04:07:12.168Z,58.40
2018-07-23T04:08:29.243Z,58.30
2018-07-23T04:09:46.085Z,58.30
2018-07-23T04:11:03.300Z,58.10
2018-07-23T04:12:19.805Z,58.30
2018-07-23T04:13:36.900Z,58.30
2018-07-23T04:14:54.532Z,58.20
2018-07-23T04:16:11.196Z,58.20
2018-07-23T04:17:27.995Z,58.20
2018-07-23T04:18:44.605Z,58.10
2018-07-23T04:20:01.484Z,58.10
2018-07-23T04:21:18.090Z,58.00
2018-07-23T04:22:35.148Z,58.00
2018-07-23T04:23:51.888Z,58.00
2018-07-23T04:25:08.508Z,58.10
2018-07-23T04:26:25.954Z,58.20
2018-07-23T04:27:43.356Z,58.90
2018-07-23T04:29:00.604Z,59.10
2018-07-23T04:30:17.920Z,58.20
2018-07-23T04:31:34.736Z,58.20
2018-07-23T04:32:51.468Z,58.10
2018-07-23T04:34:08.168Z,58.10
2018-07-23T04:35:25.388Z,58.30
2018-07-23T04:36:42.756Z,58.30
2018-07-23T04:37:59.931Z,58.60
2018-07-23T04:39:16.692Z,58.50
2018-07-23T04:40:33.612Z,58.40
2018-07-23T04:41:50.501Z,58.30
2018-07-23T04:43:07.155Z,59.00
2018-07-23T04:45:41.216Z,58.20
2018-07-23T04:46:58.754Z,58.70
2018-07-23T04:48:15.504Z,58.70
2018-07-23T04:49:32.197Z,58.60
2018-07-23T04:50:48.827Z,58.90
2018-07-23T04:52:05.764Z,58.70
2018-07-23T04:53:22.619Z,58.80
2018-07-23T04:54:39.552Z,58.80
2018-07-23T04:57:13.318Z,58.80
2018-07-23T04:58:30.654Z,58.80
2018-07-23T04:59:47.165Z,58.80
2018-07-23T05:01:04.268Z,59.00
2018-07-23T05:02:21.108Z,59.20
2018-07-23T05:03:38.880Z,59.50
2018-07-23T05:04:56.219Z,59.60
2018-07-23T05:06:13.100Z,59.90
2018-07-23T05:07:29.981Z,59.90
2018-07-23T05:08:46.941Z,60.00
2018-07-23T05:10:03.785Z,59.80
2018-07-23T05:11:20.369Z,60.60
2018-07-23T05:12:37.799Z,60.10
2018-07-23T05:13:55.026Z,60.10
2018-07-23T05:15:12.029Z,60.20
2018-07-23T05:16:29.209Z,60.20
2018-07-23T05:17:45.901Z,60.20
2018-07-23T05:19:02.608Z,60.10
2018-07-23T05:20:19.461Z,60.70
2018-07-23T05:21:36.894Z,60.00
2018-07-23T05:22:54.096Z,60.10
2018-07-23T05:24:10.738Z,60.20
2018-07-23T05:25:27.604Z,60.20
2018-07-23T05:26:44.605Z,60.50
2018-07-23T05:28:01.977Z,60.80
2018-07-23T05:29:19.141Z,60.60
2018-07-23T05:30:35.844Z,60.70
2018-07-23T05:31:52.331Z,60.60
2018-07-23T05:33:09.073Z,60.90
2018-07-23T05:34:25.888Z,60.70
2018-07-23T05:35:43.297Z,61.50
2018-07-23T05:37:00.564Z,60.80
2018-07-23T05:38:17.168Z,60.60
2018-07-23T05:40:50.956Z,60.70
2018-07-23T05:42:08.464Z,61.50
2018-07-23T05:43:26.173Z,60.90
2018-07-23T05:44:43.942Z,60.80
2018-07-23T05:46:01.155Z,60.60
2018-07-23T05:47:19.269Z,60.90
2018-07-23T05:48:36.695Z,60.90
2018-07-23T05:49:54.670Z,60.60
2018-07-23T05:51:12.291Z,60.70
2018-07-23T05:52:29.916Z,61.10
2018-07-23T05:53:46.748Z,61.20
2018-07-23T05:55:03.828Z,61.30
2018-07-23T05:56:21.878Z,61.30
2018-07-23T05:57:39.613Z,61.10
2018-07-23T05:58:57.399Z,61.00
2018-07-23T06:00:15.562Z,61.00
2018-07-23T06:01:33.056Z,60.80
2018-07-23T06:05:25.272Z,61.00
2018-07-23T06:06:42.811Z,60.80
2018-07-23T06:07:59.897Z,60.80
2018-07-23T06:09:17.712Z,60.90
2018-07-23T06:10:34.680Z,60.60
2018-07-23T06:11:52.592Z,60.90
2018-07-23T06:13:10.276Z,60.90
2018-07-23T06:14:27.292Z,60.60
2018-07-23T06:15:45.294Z,61.60
2018-07-23T06:17:03.123Z,60.60
2018-07-23T06:18:20.645Z,60.60
2018-07-23T06:19:37.417Z,61.00
2018-07-23T06:20:54.493Z,60.60
2018-07-23T06:22:11.439Z,60.80
2018-07-23T06:23:28.290Z,60.70
2018-07-23T06:24:45.168Z,61.30
2018-07-23T06:27:19.487Z,61.70
2018-07-23T06:28:36.719Z,60.90
2018-07-23T06:29:53.497Z,61.60
2018-07-23T06:31:10.130Z,61.00
2018-07-23T06:32:26.826Z,61.00
2018-07-23T06:33:44.240Z,60.90
2018-07-23T06:35:00.764Z,61.00
2018-07-23T06:36:17.750Z,60.70
2018-07-23T06:37:35.090Z,60.60
2018-07-23T06:38:51.870Z,61.00
2018-07-23T06:40:08.917Z,60.70
2018-07-23T06:41:26.306Z,60.70
2018-07-23T06:43:59.988Z,61.80
2018-07-23T06:45:16.962Z,61.40
2018-07-23T06:46:33.927Z,60.80
2018-07-23T06:47:50.682Z,60.70
2018-07-23T06:49:07.854Z,60.60
2018-07-23T06:50:24.411Z,60.90
2018-07-23T06:51:41.432Z,61.20
2018-07-23T06:54:14.843Z,62.20
2018-07-23T06:55:31.739Z,60.70
2018-07-23T06:56:48.809Z,60.90
2018-07-23T06:58:05.417Z,61.10
2018-07-23T06:59:22.393Z,60.80
2018-07-23T07:00:39.954Z,60.60
2018-07-23T07:01:56.772Z,60.60
2018-07-23T07:03:13.585Z,60.40
2018-07-23T07:04:30.849Z,60.50
2018-07-23T07:05:48.404Z,60.40
2018-07-23T07:07:05.173Z,60.00
2018-07-23T07:08:21.846Z,59.70
2018-07-23T07:09:38.777Z,60.00
2018-07-23T07:10:55.404Z,59.40
2018-07-23T07:12:12.257Z,59.80
2018-07-23T07:13:29.014Z,60.00
2018-07-23T07:14:46.760Z,59.80
2018-07-23T07:16:03.672Z,60.60
2018-07-23T07:17:20.401Z,60.30
2018-07-23T07:18:37.444Z,60.40
2018-07-23T07:19:54.441Z,60.30
2018-07-23T07:21:11.181Z,60.40
2018-07-23T07:22:27.721Z,60.10
2018-07-23T07:23:44.885Z,60.00
2018-07-23T07:25:01.793Z,59.90
2018-07-23T07:27:35.246Z,60.00
2018-07-23T07:28:52.154Z,59.90
2018-07-23T07:30:09.260Z,60.50
2018-07-23T07:31:26.814Z,59.80
2018-07-23T07:32:43.514Z,59.80
2018-07-23T07:34:00.538Z,59.80
2018-07-23T07:35:17.156Z,60.00
2018-07-23T07:36:34.320Z,59.90
2018-07-23T07:37:51.200Z,59.90
2018-07-23T07:39:10.868Z,59.90
2018-07-23T07:40:27.652Z,59.60
2018-07-23T07:41:44.618Z,60.40
2018-07-23T07:43:01.455Z,59.70
2018-07-23T07:44:18.456Z,59.70
2018-07-23T07:45:35.570Z,59.90
2018-07-23T07:46:52.248Z,60.10
2018-07-23T07:48:09.304Z,60.10
2018-07-23T07:49:26.580Z,59.60
2018-07-23T07:50:43.840Z,59.90
2018-07-23T07:52:00.742Z,60.60
2018-07-23T07:53:17.608Z,60.10
2018-07-23T07:54:34.597Z,60.20
2018-07-23T07:55:51.648Z,59.90
2018-07-23T07:58:25.175Z,60.50
2018-07-23T07:59:42.060Z,60.20
2018-07-23T08:00:58.960Z,59.60
2018-07-23T08:02:16.008Z,59.40
2018-07-23T08:03:32.849Z,59.50
2018-07-23T08:04:49.709Z,59.90
2018-07-23T08:06:07.695Z,59.60
2018-07-23T08:07:24.446Z,60.40
2018-07-23T08:08:41.735Z,59.70
2018-07-23T08:09:59.204Z,59.90
2018-07-23T08:11:15.977Z,60.00
2018-07-23T08:12:32.714Z,59.70
2018-07-23T08:13:49.248Z,59.80
2018-07-23T08:15:06.337Z,59.80
2018-07-23T08:16:23.016Z,59.60
2018-07-23T08:17:40.040Z,60.30
2018-07-23T08:18:56.752Z,59.60
2018-07-23T08:20:15.011Z,60.30
2018-07-23T08:21:31.953Z,59.70
2018-07-23T08:24:05.569Z,59.80
2018-07-23T08:25:22.756Z,59.30
2018-07-23T08:26:39.544Z,59.40
2018-07-23T08:27:57.232Z,59.40
2018-07-23T08:30:30.490Z,59.50
2018-07-23T08:31:47.579Z,59.20
2018-07-23T08:33:04.666Z,59.10
2018-07-23T08:34:21.391Z,58.90
2018-07-23T08:35:38.464Z,59.00
2018-07-23T08:36:55.260Z,59.10
2018-07-23T08:38:12.311Z,59.00
2018-07-23T08:39:29.202Z,59.90
2018-07-23T08:40:46.081Z,59.80
2018-07-23T08:42:03.233Z,59.00
2018-07-23T08:43:19.950Z,59.00
2018-07-23T08:44:36.939Z,59.00
2018-07-23T08:45:53.889Z,59.50
2018-07-23T08:47:10.837Z,59.50
2018-07-23T08:48:31.924Z,59.80
2018-07-23T08:49:49.633Z,59.40
2018-07-23T08:51:06.568Z,59.80
2018-07-23T08:52:23.608Z,59.60
2018-07-23T08:53:40.303Z,59.70
2018-07-23T08:54:57.035Z,59.60
2018-07-23T08:56:14.103Z,59.50
2018-07-23T08:57:31.127Z,59.70
2018-07-23T08:58:47.894Z,59.70
2018-07-23T09:00:05.666Z,60.70
2018-07-23T09:01:22.710Z,60.60
2018-07-23T09:02:39.754Z,61.20
2018-07-23T09:03:56.801Z,60.90
2018-07-23T09:05:13.348Z,61.40
2018-07-23T09:06:29.920Z,60.70
2018-07-23T09:07:46.588Z,60.90
2018-07-23T09:09:04.093Z,61.10
2018-07-23T09:10:21.601Z,61.10
2018-07-23T09:11:38.388Z,60.90
2018-07-23T09:12:55.528Z,60.70
2018-07-23T09:14:12.239Z,61.10
2018-07-23T09:15:29.020Z,61.30
2018-07-23T09:16:46.138Z,60.40
2018-07-23T09:18:03.005Z,60.90
2018-07-23T09:19:19.727Z,61.00
2018-07-23T09:20:36.300Z,61.20
2018-07-23T09:21:53.090Z,60.60
2018-07-23T09:23:09.795Z,61.30
2018-07-23T09:24:26.560Z,61.40
2018-07-23T09:25:45.506Z,61.30
2018-07-23T09:27:02.564Z,61.40
2018-07-23T09:28:19.364Z,61.40
2018-07-23T09:29:36.131Z,61.40
2018-07-23T09:30:53.863Z,61.50
2018-07-23T09:32:10.712Z,61.00
2018-07-23T09:33:27.449Z,61.80
2018-07-23T09:34:44.147Z,61.70
2018-07-23T09:36:01.046Z,60.80
2018-07-23T09:37:17.961Z,60.30
2018-07-23T09:38:35.642Z,60.10
2018-07-23T09:39:53.298Z,60.40
2018-07-23T09:41:11.369Z,60.10
2018-07-23T09:42:28.322Z,60.00
2018-07-23T09:43:44.993Z,60.30
2018-07-23T09:45:02.007Z,60.70
2018-07-23T09:46:19.064Z,60.10
2018-07-23T09:47:37.601Z,60.10
2018-07-23T09:48:54.821Z,60.00
2018-07-23T09:50:11.698Z,60.20
2018-07-23T09:51:28.617Z,60.20
2018-07-23T09:52:46.030Z,60.40
2018-07-23T09:54:02.818Z,60.30
2018-07-23T09:55:19.717Z,60.40
2018-07-23T09:56:36.806Z,60.40
2018-07-23T09:57:54.013Z,60.10
2018-07-23T09:59:11.902Z,59.80
2018-07-23T10:00:34.528Z,59.80
2018-07-23T10:01:52.044Z,59.80
2018-07-23T10:03:09.164Z,59.30
2018-07-23T10:04:25.887Z,59.30
2018-07-23T10:05:43.178Z,58.90
2018-07-23T10:06:59.755Z,58.80
2018-07-23T10:08:17.199Z,59.10
2018-07-23T10:09:34.182Z,59.10
2018-07-23T10:10:51.233Z,59.30
2018-07-23T10:12:08.290Z,58.70
2018-07-23T10:13:26.901Z,58.80
2018-07-23T10:14:44.448Z,58.90
2018-07-23T10:16:01.381Z,58.30
2018-07-23T10:17:18.904Z,57.80
2018-07-23T10:18:35.470Z,57.60
2018-07-23T10:19:52.445Z,57.30
2018-07-23T10:21:09.009Z,58.00
2018-07-23T10:22:25.681Z,57.80
2018-07-23T10:25:26.382Z,57.70
2018-07-23T10:26:42.986Z,58.20
2018-07-23T10:27:59.753Z,57.60
2018-07-23T10:29:16.741Z,56.60
2018-07-23T10:30:33.237Z,56.70
2018-07-23T10:31:49.948Z,56.30
2018-07-23T10:33:07.082Z,56.40
2018-07-23T10:34:24.204Z,55.80
2018-07-23T10:35:40.932Z,56.20
2018-07-23T10:36:57.583Z,56.30
2018-07-23T10:38:14.704Z,55.40
2018-07-23T10:39:31.567Z,54.50
2018-07-23T10:40:48.704Z,54.60
2018-07-23T10:42:05.825Z,54.90
2018-07-23T10:43:23.417Z,54.80
2018-07-23T10:44:40.972Z,54.60
2018-07-23T10:45:58.061Z,54.40
2018-07-23T10:47:14.873Z,53.60
2018-07-23T10:48:31.694Z,54.10
2018-07-23T10:49:48.652Z,54.20
2018-07-23T10:51:05.471Z,54.30
2018-07-23T10:52:21.994Z,54.70
2018-07-23T10:53:39.312Z,54.50
2018-07-23T10:54:56.609Z,53.30
2018-07-23T10:56:13.481Z,52.50
2018-07-23T10:57:30.135Z,52.50
2018-07-23T10:58:46.985Z,52.80
2018-07-23T11:00:03.770Z,53.30
2018-07-23T11:01:20.440Z,52.80
2018-07-23T11:02:38.001Z,52.20
2018-07-23T11:03:55.051Z,52.80
2018-07-23T11:05:11.997Z,52.30
2018-07-23T11:07:45.657Z,52.20
2018-07-23T11:09:02.536Z,51.50
2018-07-23T11:10:19.619Z,51.50
2018-07-23T11:11:37.325Z,51.50
2018-07-23T11:12:54.925Z,51.80
2018-07-23T11:14:11.704Z,52.10
2018-07-23T11:15:28.559Z,53.20
2018-07-23T11:16:45.300Z,52.80
2018-07-23T11:18:02.025Z,52.80
2018-07-23T11:19:18.703Z,50.50
2018-07-23T11:20:35.632Z,50.20
2018-07-23T11:21:52.621Z,50.50
2018-07-23T11:23:10.197Z,50.00
2018-07-23T11:24:27.368Z,50.30
2018-07-23T11:25:43.981Z,51.00
2018-07-23T11:27:00.981Z,51.80
2018-07-23T11:28:17.592Z,51.00
2018-07-23T11:29:34.816Z,50.60
2018-07-23T11:30:52.281Z,50.10
2018-07-23T11:32:09.180Z,50.20
2018-07-23T11:33:26.481Z,50.10
2018-07-23T11:34:43.744Z,50.30
2018-07-23T11:36:00.692Z,50.50
2018-07-23T11:37:17.397Z,50.10
2018-07-23T11:38:34.373Z,50.30
2018-07-23T11:39:50.928Z,50.30
2018-07-23T11:41:07.628Z,49.50
2018-07-23T11:42:24.585Z,49.60
2018-07-23T11:43:41.581Z,50.30
2018-07-23T11:44:58.126Z,48.80
2018-07-23T11:46:24.423Z,48.80
2018-07-23T11:47:32.223Z,48.40
2018-07-23T11:48:49.281Z,48.80
2018-07-23T11:50:06.233Z,48.70
2018-07-23T11:51:23.169Z,48.20
2018-07-23T11:52:39.981Z,48.20
2018-07-23T11:53:56.689Z,47.70
2018-07-23T11:55:13.252Z,46.60
2018-07-23T11:56:30.164Z,46.10
2018-07-23T11:59:03.578Z,45.70
2018-07-23T12:00:20.150Z,46.20
2018-07-23T12:01:39.238Z,46.50
2018-07-23T12:02:55.975Z,46.80
2018-07-23T12:04:12.508Z,46.70
2018-07-23T12:05:49.573Z,46.90
2018-07-23T12:07:09.873Z,46.90
2018-07-23T12:08:26.626Z,47.00
2018-07-23T12:09:44.388Z,46.90
2018-07-23T12:11:01.099Z,47.40
2018-07-23T12:12:17.904Z,47.50
2018-07-23T12:13:35.104Z,47.80
2018-07-23T12:14:52.706Z,48.40
2018-07-23T12:16:09.480Z,48.50
2018-07-23T12:17:26.603Z,49.90
2018-07-23T12:18:43.911Z,49.90
2018-07-23T12:20:00.677Z,48.80
2018-07-23T12:21:17.553Z,49.00
2018-07-23T12:22:34.617Z,49.60
2018-07-23T12:23:51.804Z,49.50
2018-07-23T12:25:09.428Z,49.50
2018-07-23T12:26:26.372Z,49.40
2018-07-23T12:27:43.244Z,50.00
2018-07-23T12:29:00.153Z,50.00
2018-07-23T12:30:17.098Z,50.80
2018-07-23T12:31:34.071Z,51.20
2018-07-23T12:32:52.243Z,51.50
2018-07-23T12:34:08.953Z,52.20
2018-07-23T12:35:25.696Z,51.50
2018-07-23T12:36:42.428Z,51.20
2018-07-23T12:37:59.490Z,50.80
2018-07-23T12:39:16.161Z,50.60
2018-07-23T12:40:33.432Z,50.80
2018-07-23T12:41:51.115Z,50.10
2018-07-23T12:43:07.837Z,49.90
2018-07-23T12:44:24.575Z,49.30
2018-07-23T12:45:41.592Z,49.20
2018-07-23T12:46:58.071Z,49.40
2018-07-23T12:48:15.104Z,49.90
2018-07-23T12:49:32.141Z,49.80
2018-07-23T12:50:48.960Z,49.40
2018-07-23T12:52:06.135Z,50.20
2018-07-23T12:53:22.777Z,50.60
2018-07-23T12:54:40.228Z,50.70
2018-07-23T12:55:57.899Z,51.50
2018-07-23T12:57:15.797Z,50.90
2018-07-23T12:58:33.072Z,51.00
2018-07-23T12:59:50.096Z,51.00
2018-07-23T13:01:07.117Z,51.00
2018-07-23T13:02:23.935Z,51.10
2018-07-23T13:03:40.745Z,50.80
2018-07-23T13:04:58.354Z,50.30
2018-07-23T13:06:15.854Z,49.70
2018-07-23T13:07:33.797Z,49.60
2018-07-23T13:08:50.389Z,49.50
2018-07-23T13:10:07.332Z,48.50
2018-07-23T13:11:24.997Z,48.10
2018-07-23T13:12:42.357Z,48.20
2018-07-23T13:13:59.466Z,48.00
2018-07-23T13:15:16.260Z,47.80
2018-07-23T13:16:34.258Z,47.30
2018-07-23T13:17:51.373Z,47.30
2018-07-23T13:19:09.094Z,47.30
2018-07-23T13:20:25.900Z,47.20
2018-07-23T13:21:44.375Z,46.70
2018-07-23T13:23:01.968Z,46.30
2018-07-23T13:24:19.425Z,47.30
2018-07-23T13:25:36.348Z,46.90
2018-07-23T13:26:53.242Z,48.00
2018-07-23T13:28:10.394Z,47.20
2018-07-23T13:29:27.346Z,47.30
2018-07-23T13:30:43.840Z,46.60
2018-07-23T13:32:00.681Z,47.60
2018-07-23T13:33:17.616Z,47.80
2018-07-23T13:34:34.506Z,48.20
2018-07-23T13:35:51.064Z,47.90
2018-07-23T13:37:07.983Z,48.30
2018-07-23T13:38:24.794Z,48.10
2018-07-23T13:39:41.900Z,48.30
2018-07-23T13:42:16.107Z,48.40
2018-07-23T13:43:33.323Z,48.00
2018-07-23T13:44:49.848Z,47.40
2018-07-23T13:46:06.800Z,47.40
2018-07-23T13:47:23.669Z,47.10
2018-07-23T13:48:40.685Z,46.80
2018-07-23T13:49:57.833Z,47.40
2018-07-23T13:51:15.280Z,47.50
2018-07-23T13:52:32.491Z,48.00
2018-07-23T13:53:50.053Z,48.20
2018-07-23T13:55:07.181Z,47.50
2018-07-23T13:56:24.793Z,47.40
2018-07-23T13:57:48.316Z,47.90
2018-07-23T13:59:06.421Z,47.30
2018-07-23T14:00:24.118Z,47.40
2018-07-23T14:01:41.663Z,47.50
2018-07-23T14:02:59.410Z,47.40
2018-07-23T14:04:16.169Z,47.70
2018-07-23T14:05:34.082Z,47.80
2018-07-23T14:06:51.338Z,48.00
2018-07-23T14:08:08.444Z,48.40
2018-07-23T14:09:25.881Z,48.10
2018-07-23T14:10:42.636Z,48.20
2018-07-23T14:12:00.043Z,48.20
2018-07-23T14:13:16.673Z,48.00
2018-07-23T14:14:33.468Z,48.00
2018-07-23T14:15:50.833Z,48.20
2018-07-23T14:17:08.481Z,48.40
2018-07-23T14:18:25.312Z,48.50
2018-07-23T14:19:42.293Z,48.50
2018-07-23T14:20:59.088Z,48.80
2018-07-23T14:22:15.949Z,48.90
2018-07-23T14:23:32.861Z,49.10
2018-07-23T14:24:49.772Z,48.60
2018-07-23T14:26:06.610Z,48.60
2018-07-23T14:27:23.100Z,48.90
2018-07-23T14:28:40.257Z,48.40
2018-07-23T14:29:57.922Z,48.30
2018-07-23T14:32:31.541Z,48.70
2018-07-23T14:33:49.141Z,49.20
2018-07-23T14:35:05.814Z,48.80
2018-07-23T14:36:22.700Z,48.80
2018-07-23T14:37:39.612Z,49.50
2018-07-23T14:38:56.625Z,48.80
2018-07-23T14:40:14.161Z,48.80
2018-07-23T14:41:31.287Z,48.70
2018-07-23T14:42:47.905Z,48.70
2018-07-23T14:45:21.076Z,48.50
2018-07-23T14:46:38.567Z,48.70
2018-07-23T14:47:56.837Z,48.80
2018-07-23T14:50:31.928Z,49.10
2018-07-23T14:51:52.300Z,49.80
2018-07-23T14:53:10.001Z,50.00
2018-07-23T14:54:26.812Z,48.70
2018-07-23T14:55:43.828Z,48.80
2018-07-23T14:57:00.889Z,49.10
2018-07-23T14:58:17.776Z,47.90
2018-07-23T14:59:36.218Z,47.50
2018-07-23T15:00:53.135Z,47.90
2018-07-23T15:02:10.868Z,46.80
2018-07-23T15:03:28.088Z,46.80
2018-07-23T15:04:45.530Z,47.00
2018-07-23T15:06:02.792Z,46.80
2018-07-23T15:07:19.350Z,46.50
2018-07-23T15:08:36.309Z,46.80
2018-07-23T15:09:53.253Z,46.70
2018-07-23T15:11:10.550Z,46.90
2018-07-23T15:12:27.703Z,46.90
2018-07-23T15:13:44.470Z,46.70
2018-07-23T15:15:02.081Z,47.00
2018-07-23T15:16:18.871Z,47.30
2018-07-23T15:17:35.392Z,47.20
2018-07-23T15:18:52.129Z,46.90
2018-07-23T15:20:08.757Z,47.00
2018-07-23T15:21:25.747Z,47.20
2018-07-23T15:22:42.417Z,47.20
2018-07-23T15:23:59.305Z,47.70
2018-07-23T15:25:16.122Z,47.80
2018-07-23T15:26:32.966Z,47.40
2018-07-23T15:27:49.764Z,46.00
2018-07-23T15:29:07.012Z,46.00
2018-07-23T15:30:23.767Z,46.30
2018-07-23T15:31:40.714Z,46.50
2018-07-23T15:32:57.596Z,46.70
2018-07-23T15:34:14.232Z,46.90
2018-07-23T15:35:30.976Z,46.70
2018-07-23T15:36:48.403Z,47.00
2018-07-23T15:38:05.617Z,47.20
2018-07-23T15:39:22.352Z,47.00
2018-07-23T15:40:39.397Z,47.10
2018-07-23T15:41:56.316Z,47.50
2018-07-23T15:43:12.817Z,46.80
2018-07-23T15:44:29.725Z,46.80
2018-07-23T15:45:46.835Z,46.50
2018-07-23T15:47:04.660Z,46.40
2018-07-23T15:48:22.061Z,46.60
2018-07-23T15:49:38.720Z,46.60
2018-07-23T15:50:55.592Z,46.60
2018-07-23T15:52:12.648Z,46.60
2018-07-23T15:53:29.609Z,46.80
2018-07-23T15:54:46.624Z,46.60
2018-07-23T15:56:03.400Z,46.40
2018-07-23T15:57:20.814Z,46.30
2018-07-23T15:58:37.779Z,46.30
2018-07-23T16:01:11.464Z,46.10
2018-07-23T16:02:28.284Z,44.40
2018-07-23T16:03:45.332Z,45.40
2018-07-23T16:05:02.353Z,45.50
2018-07-23T16:06:19.029Z,45.40
2018-07-23T16:07:36.111Z,44.40
2018-07-23T16:08:52.825Z,44.90
2018-07-23T16:10:09.625Z,45.80
2018-07-23T16:11:26.249Z,44.70
2018-07-23T16:12:43.112Z,45.30
2018-07-23T16:14:00.168Z,45.30
2018-07-23T16:16:33.988Z,45.70
2018-07-23T16:19:08.595Z,44.20
2018-07-23T16:20:25.930Z,44.70
2018-07-23T16:21:42.814Z,44.30
2018-07-23T16:23:00.278Z,44.40
2018-07-23T16:24:17.333Z,44.40
2018-07-23T16:25:34.019Z,44.90
2018-07-23T16:26:50.739Z,44.00
2018-07-23T16:28:08.548Z,44.50
2018-07-23T16:29:25.344Z,44.90
2018-07-23T16:30:42.260Z,45.10
2018-07-23T16:31:58.867Z,45.10
2018-07-23T16:33:15.834Z,45.30
2018-07-23T16:34:32.683Z,45.30
2018-07-23T16:35:49.548Z,45.10
2018-07-23T16:37:06.677Z,44.70
2018-07-23T16:38:24.570Z,44.70
2018-07-23T16:39:41.298Z,44.10
2018-07-23T16:40:58.243Z,43.10
2018-07-23T16:42:14.994Z,43.10
2018-07-23T16:43:31.805Z,42.60
2018-07-23T16:44:49.562Z,42.40
2018-07-23T16:46:06.593Z,43.00
2018-07-23T16:47:23.482Z,42.30
2018-07-23T16:48:40.557Z,43.20
2018-07-23T16:49:57.432Z,43.20
2018-07-23T16:51:14.451Z,43.20
2018-07-23T16:52:31.120Z,43.70
2018-07-23T16:53:47.991Z,43.60
2018-07-23T16:55:04.548Z,43.80
2018-07-23T16:56:21.624Z,43.80
2018-07-23T16:57:38.385Z,44.20
2018-07-23T16:58:55.256Z,43.80
2018-07-23T17:00:12.202Z,44.60
2018-07-23T17:01:29.829Z,44.50
2018-07-23T17:02:46.986Z,44.30
2018-07-23T17:04:03.875Z,44.40
2018-07-23T17:05:20.896Z,44.80
2018-07-23T17:06:37.412Z,44.40
2018-07-23T17:09:13.045Z,44.60
2018-07-23T17:10:32.288Z,44.60
2018-07-23T17:11:50.196Z,44.80